Time;durP1;ratioP1;P1;durP2;ratioP2;P2;SDS_P1;SDS_P2;PMS_P1;PMS_P2;Temp;Humidity;BMP_temperature;BMP_pressure;BME280_temperature;BME280_humidity;BME280_pressure;Samples;Min_cycle;Max_cycle;Signal;HPM_P1;HPM_P2
2023/10/09 00:01:58;;;;;;;8.20;3.15;;;14.20;99.90;;;;;;4249008;27;19923;-82
2023/10/09 00:04:01;;;;;;;9.13;2.53;;;14.10;99.90;;;;;;4249051;27;20402;-82
2023/10/09 00:06:02;;;;;;;9.63;2.60;;;14.10;99.90;;;;;;4243052;27;20101;-82
2023/10/09 00:08:04;;;;;;;9.55;2.83;;;14.10;99.90;;;;;;4248659;27;20046;-82
2023/10/09 00:10:12;;;;;;;9.13;2.95;;;14.10;99.90;;;;;;4248347;27;20046;-82
2023/10/09 00:12:22;;;;;;;8.02;3.15;;;14.10;99.90;;;;;;4248704;27;20039;-82
2023/10/09 00:14:25;;;;;;;9.02;3.03;;;14.10;99.90;;;;;;4248863;27;20096;-82
2023/10/09 00:16:35;;;;;;;9.88;3.50;;;14.10;99.90;;;;;;4241520;27;20078;-81
2023/10/09 00:18:36;;;;;;;10.10;2.67;;;14.10;99.90;;;;;;4231433;28;20095;-82
2023/10/09 00:20:42;;;;;;;7.93;2.65;;;14.10;99.90;;;;;;4231523;28;20134;-82
2023/10/09 00:22:46;;;;;;;12.43;4.15;;;14.10;99.90;;;;;;4231798;27;20495;-82
2023/10/09 00:24:50;;;;;;;6.63;2.55;;;14.10;99.90;;;;;;4248519;27;20043;-82
2023/10/09 00:29:16;;;;;;;6.63;3.00;;;14.10;99.90;;;;;;4247809;27;20085;-82
2023/10/09 00:33:52;;;;;;;8.57;3.13;;;14.10;99.90;;;;;;4179367;28;20053;-82
2023/10/09 00:35:55;;;;;;;15.90;4.28;;;14.10;99.90;;;;;;4228403;28;20129;-82
2023/10/09 00:38:01;;;;;;;8.57;3.92;;;14.10;99.90;;;;;;4230205;28;20122;-82
2023/10/09 00:40:12;;;;;;;9.80;3.40;;;14.10;99.90;;;;;;4246706;27;20768;-82
2023/10/09 00:42:14;;;;;;;14.20;3.88;;;14.10;99.90;;;;;;4245291;27;20506;-82
2023/10/09 00:44:15;;;;;;;12.10;4.53;;;14.10;99.90;;;;;;4248358;27;20043;-81
2023/10/09 00:48:31;;;;;;;10.85;3.88;;;14.10;99.90;;;;;;4248310;27;20043;-81
2023/10/09 00:50:35;;;;;;;10.80;4.20;;;14.10;99.90;;;;;;4247258;27;20515;-81
2023/10/09 00:52:44;;;;;;;9.55;3.75;;;14.10;99.90;;;;;;4248299;27;20047;-81
2023/10/09 00:54:50;;;;;;;10.95;4.00;;;14.10;99.90;;;;;;4229404;28;20109;-81
2023/10/09 00:56:57;;;;;;;15.60;4.13;;;14.10;99.90;;;;;;4248239;27;20042;-81
2023/10/09 00:59:09;;;;;;;12.45;4.90;;;14.10;99.90;;;;;;4242073;27;20042;-81
2023/10/09 01:01:15;;;;;;;13.57;4.95;;;14.10;99.90;;;;;;4212907;28;20914;-80
2023/10/09 01:05:26;;;;;;;17.92;5.45;;;14.10;99.90;;;;;;4231162;28;20051;-80
2023/10/09 01:07:28;;;;;;;11.32;4.82;;;14.10;99.90;;;;;;4196381;28;20060;-80
2023/10/09 01:09:29;;;;;;;13.32;5.72;;;14.10;99.90;;;;;;4231035;28;20046;-81
2023/10/09 01:11:30;;;;;;;17.27;5.07;;;14.10;99.90;;;;;;4230757;28;20092;-81
2023/10/09 01:13:52;;;;;;;15.55;5.68;;;14.10;99.90;;;;;;4196157;28;20520;-81
2023/10/09 01:15:54;;;;;;;18.67;5.75;;;14.20;99.90;;;;;;4212661;28;20055;-81
2023/10/09 01:17:54;;;;;;;17.45;5.15;;;14.10;99.90;;;;;;4230667;28;20092;-81
2023/10/09 01:19:56;;;;;;;12.57;4.82;;;14.10;99.90;;;;;;4229670;28;20547;-81
2023/10/09 01:24:27;;;;;;;15.85;5.88;;;14.10;99.90;;;;;;4229858;28;20047;-81
2023/10/09 01:26:46;;;;;;;15.52;5.85;;;14.10;99.90;;;;;;4247646;28;20054;-81
2023/10/09 01:28:49;;;;;;;21.58;6.55;;;14.10;99.90;;;;;;4247792;28;20058;-81
2023/10/09 01:30:51;;;;;;;16.23;5.70;;;14.20;99.90;;;;;;4248018;28;20047;-81
2023/10/09 01:32:52;;;;;;;16.35;5.53;;;14.20;99.90;;;;;;4247899;28;20043;-81
2023/10/09 01:34:54;;;;;;;19.05;6.35;;;14.10;99.90;;;;;;4247503;28;20045;-81
2023/10/09 01:36:55;;;;;;;14.82;6.28;;;14.20;99.90;;;;;;4242800;28;20051;-81
2023/10/09 01:38:56;;;;;;;21.17;6.70;;;14.10;99.90;;;;;;4247857;28;20039;-81
2023/10/09 01:41:05;;;;;;;24.00;6.80;;;14.10;99.90;;;;;;4247904;28;20092;-81
2023/10/09 01:43:09;;;;;;;20.67;7.53;;;14.10;99.90;;;;;;4247581;28;20051;-81
2023/10/09 01:45:12;;;;;;;20.75;7.25;;;14.10;99.90;;;;;;4247611;28;20035;-81
2023/10/09 01:47:18;;;;;;;21.77;6.88;;;14.10;99.90;;;;;;4247812;28;20104;-81
2023/10/09 01:49:29;;;;;;;21.85;7.03;;;14.10;99.90;;;;;;4247371;28;20047;-81
2023/10/09 01:51:34;;;;;;;23.52;7.55;;;14.10;99.90;;;;;;4247534;28;20455;-81
2023/10/09 01:53:38;;;;;;;25.98;8.18;;;14.10;99.90;;;;;;4247510;28;20126;-81
2023/10/09 01:55:45;;;;;;;19.88;7.75;;;14.10;99.90;;;;;;4223900;28;20195;-82
2023/10/09 01:57:46;;;;;;;23.25;9.20;;;14.10;99.90;;;;;;4233584;28;20502;-81
2023/10/09 01:59:49;;;;;;;25.67;9.43;;;14.10;99.90;;;;;;4212592;28;20076;-81
2023/10/09 02:01:54;;;;;;;23.35;8.95;;;14.10;99.90;;;;;;4230739;28;20046;-81
2023/10/09 02:04:03;;;;;;;34.60;9.10;;;14.00;99.90;;;;;;4229683;28;20118;-81
2023/10/09 02:06:05;;;;;;;28.45;9.45;;;14.10;99.90;;;;;;4232035;28;20040;-81
2023/10/09 02:08:06;;;;;;;25.50;7.82;;;14.10;99.90;;;;;;4234483;28;20130;-80
2023/10/09 02:10:21;;;;;;;24.45;7.70;;;14.10;99.90;;;;;;4234102;28;20071;-80
2023/10/09 02:12:23;;;;;;;26.88;8.90;;;14.10;99.90;;;;;;4233873;28;20050;-80
2023/10/09 02:14:24;;;;;;;25.63;9.50;;;13.60;99.90;;;;;;4233998;28;20074;-80
2023/10/09 02:16:41;;;;;;;28.42;8.98;;;14.10;99.90;;;;;;4239019;27;20047;-80
2023/10/09 02:21:01;;;;;;;29.45;11.18;;;14.10;99.90;;;;;;4215429;28;20105;-80
2023/10/09 02:23:03;;;;;;;32.95;9.68;;;14.10;99.90;;;;;;4233927;28;20054;-80
2023/10/09 02:25:05;;;;;;;26.80;10.65;;;14.10;99.90;;;;;;4234387;28;20126;-80
2023/10/09 02:27:08;;;;;;;24.70;10.20;;;14.10;99.90;;;;;;4217534;28;20566;-80
2023/10/09 02:29:18;;;;;;;27.63;10.10;;;14.10;99.90;;;;;;4234546;28;20044;-80
2023/10/09 02:31:22;;;;;;;32.15;11.13;;;14.10;99.90;;;;;;4233927;28;20074;-80
2023/10/09 02:33:27;;;;;;;26.98;10.43;;;14.10;99.90;;;;;;4240633;27;20044;-80
2023/10/09 02:35:28;;;;;;;24.80;10.43;;;14.10;99.90;;;;;;4250859;27;20039;-80
2023/10/09 02:37:29;;;;;;;30.40;11.32;;;14.10;99.90;;;;;;4250723;27;20047;-81
2023/10/09 02:39:36;;;;;;;27.13;10.23;;;14.10;99.90;;;;;;4250813;27;20039;-81
2023/10/09 02:41:44;;;;;;;32.58;11.25;;;14.10;99.90;;;;;;4250860;27;20088;-80
2023/10/09 02:43:46;;;;;;;30.23;11.70;;;14.10;99.90;;;;;;4250334;27;20484;-81
2023/10/09 02:45:50;;;;;;;34.60;12.05;;;14.10;99.90;;;;;;4250361;27;20560;-81
2023/10/09 02:47:51;;;;;;;25.13;10.40;;;14.10;99.90;;;;;;4250273;27;20054;-81
2023/10/09 02:49:52;;;;;;;28.92;12.13;;;14.10;99.90;;;;;;4244563;27;20043;-80
2023/10/09 02:51:53;;;;;;;29.52;11.48;;;14.10;99.90;;;;;;4233034;28;20450;-81
2023/10/09 02:53:56;;;;;;;30.33;11.13;;;14.10;99.90;;;;;;4233106;28;20058;-81
2023/10/09 02:56:12;;;;;;;30.90;11.40;;;14.10;99.90;;;;;;4232669;28;20087;-81
2023/10/09 02:58:20;;;;;;;36.08;12.70;;;14.10;99.90;;;;;;4233075;28;20055;-80
2023/10/09 03:00:29;;;;;;;34.33;12.18;;;14.10;99.90;;;;;;4233139;28;20490;-80
2023/10/09 03:02:31;;;;;;;32.85;12.43;;;14.10;99.90;;;;;;4214999;28;20547;-80
2023/10/09 03:04:32;;;;;;;29.50;11.40;;;14.10;99.90;;;;;;4244203;27;20047;-80
2023/10/09 03:06:38;;;;;;;29.85;11.98;;;14.10;99.90;;;;;;4246225;27;20039;-80
2023/10/09 03:08:42;;;;;;;26.23;10.90;;;14.20;99.90;;;;;;4233507;27;20044;-80
2023/10/09 03:10:43;;;;;;;32.97;11.82;;;14.10;99.90;;;;;;4214848;28;20044;-81
2023/10/09 03:12:44;;;;;;;30.90;12.75;;;14.20;99.90;;;;;;4234866;27;20051;-81
2023/10/09 03:14:45;;;;;;;31.85;12.80;;;14.20;99.90;;;;;;4249606;27;20087;-81
2023/10/09 03:16:48;;;;;;;36.25;13.95;;;14.20;99.90;;;;;;4249538;27;20513;-80
2023/10/09 03:18:52;;;;;;;37.35;12.27;;;14.20;99.90;;;;;;4244820;27;20031;-81
2023/10/09 03:20:53;;;;;;;33.92;12.65;;;14.20;99.90;;;;;;4249639;27;20471;-81
2023/10/09 03:22:55;;;;;;;32.28;12.77;;;14.20;99.90;;;;;;4249423;27;20072;-81
2023/10/09 03:24:56;;;;;;;32.28;13.63;;;14.20;99.90;;;;;;4244505;27;20128;-81
2023/10/09 03:26:58;;;;;;;35.05;13.18;;;14.20;99.90;;;;;;4249566;27;20064;-81
2023/10/09 03:29:01;;;;;;;33.85;13.20;;;14.20;99.90;;;;;;4249495;27;20559;-80
2023/10/09 03:31:02;;;;;;;35.17;13.35;;;14.30;99.90;;;;;;4249455;27;20072;-81
2023/10/09 03:33:04;;;;;;;34.58;14.52;;;14.30;99.90;;;;;;4230943;28;20043;-81
2023/10/09 03:35:06;;;;;;;37.42;14.13;;;14.30;99.90;;;;;;4249234;27;20050;-81
2023/10/09 03:37:21;;;;;;;36.78;13.88;;;14.30;99.90;;;;;;4249041;27;20539;-81
2023/10/09 03:39:41;;;;;;;36.78;13.43;;;14.40;99.90;;;;;;4231183;28;20100;-81
2023/10/09 03:41:42;;;;;;;38.90;14.48;;;14.40;99.90;;;;;;4243007;27;20118;-81
2023/10/09 03:43:43;;;;;;;39.08;14.80;;;14.40;99.90;;;;;;4238784;27;20063;-80
2023/10/09 03:45:54;;;;;;;38.65;13.90;;;14.50;99.90;;;;;;4232209;28;20036;-81
2023/10/09 03:48:00;;;;;;;35.47;15.40;;;14.50;99.90;;;;;;4231774;28;20063;-81
2023/10/09 03:50:07;;;;;;;34.35;14.15;;;14.50;99.90;;;;;;4231949;28;20050;-81
2023/10/09 03:52:09;;;;;;;35.20;14.57;;;14.50;99.90;;;;;;4232154;28;20040;-80
2023/10/09 03:54:10;;;;;;;36.47;12.93;;;14.50;99.90;;;;;;4213778;28;20123;-81
2023/10/09 03:56:15;;;;;;;38.88;14.73;;;14.60;99.90;;;;;;4231759;28;20051;-81
2023/10/09 03:58:18;;;;;;;38.47;15.00;;;14.60;99.90;;;;;;4232032;28;20163;-81
2023/10/09 04:00:27;;;;;;;35.83;14.00;;;14.70;99.90;;;;;;4232397;28;20058;-81
2023/10/09 04:02:28;;;;;;;32.83;13.45;;;14.70;99.90;;;;;;4243044;27;20439;-82
2023/10/09 04:04:31;;;;;;;37.50;14.63;;;14.70;99.90;;;;;;4248490;27;20050;-82
2023/10/09 04:06:33;;;;;;;39.08;14.80;;;14.80;99.90;;;;;;4248912;27;20066;-82
2023/10/09 04:08:35;;;;;;;36.85;13.45;;;14.80;99.90;;;;;;4248616;27;20036;-81
2023/10/09 04:13:10;;;;;;;29.58;12.65;;;15.00;99.90;;;;;;4230314;27;20043;-81
2023/10/09 04:15:14;;;;;;;36.58;12.57;;;15.00;99.90;;;;;;4248761;27;20035;-82
2023/10/09 04:19:25;;;;;;;36.30;13.25;;;15.10;99.90;;;;;;4240155;27;20035;-82
2023/10/09 04:21:36;;;;;;;31.63;14.35;;;15.20;99.90;;;;;;4231659;28;20184;-82
2023/10/09 04:23:59;;;;;;;30.95;12.35;;;15.20;99.90;;;;;;4231588;28;20506;-82
2023/10/09 04:25:59;;;;;;;28.67;12.07;;;15.30;99.90;;;;;;4231524;28;20065;-82
2023/10/09 04:28:09;;;;;;;35.13;12.52;;;15.30;99.90;;;;;;4231311;28;20035;-81
2023/10/09 04:30:15;;;;;;;28.83;12.07;;;15.40;99.90;;;;;;4230792;28;20141;-82
2023/10/09 04:32:16;;;;;;;24.40;11.32;;;15.40;99.90;;;;;;4231606;28;20051;-81
2023/10/09 04:34:22;;;;;;;24.45;12.50;;;15.40;99.90;;;;;;4213520;28;20499;-81
2023/10/09 04:36:28;;;;;;;31.10;10.98;;;15.40;99.90;;;;;;4233008;27;20161;-82
2023/10/09 04:38:34;;;;;;;34.70;11.80;;;15.50;99.90;;;;;;4238762;27;20044;-82
2023/10/09 04:40:41;;;;;;;23.67;11.02;;;15.40;99.90;;;;;;4231330;28;20089;-81
2023/10/09 04:42:57;;;;;;;29.15;11.40;;;15.40;99.90;;;;;;4213175;28;20105;-82
2023/10/09 04:46:12;;;;;;;32.33;11.80;;;15.50;99.90;;;;;;4231341;28;20044;-81
2023/10/09 04:47:19;;;;;;;25.65;11.10;;;15.50;99.90;;;;;;4229865;28;20052;-81
2023/10/09 04:49:27;;;;;;;32.35;11.38;;;15.50;99.90;;;;;;4231117;28;20047;-82
2023/10/09 04:51:35;;;;;;;26.92;11.73;;;15.40;99.90;;;;;;4212878;28;20134;-82
2023/10/09 04:53:43;;;;;;;28.00;11.00;;;15.50;99.90;;;;;;4231254;28;20411;-81
2023/10/09 04:55:53;;;;;;;31.93;11.60;;;15.50;99.90;;;;;;4230782;28;20039;-81
2023/10/09 04:58:23;;;;;;;25.55;11.38;;;15.50;99.90;;;;;;4231159;28;20361;-81
2023/10/09 05:02:36;;;;;;;29.58;10.85;;;15.50;99.90;;;;;;4237943;27;20047;-81
2023/10/09 05:06:54;;;;;;;27.42;10.52;;;15.50;99.90;;;;;;4247775;27;19920;-81
2023/10/09 05:08:55;;;;;;;29.23;10.20;;;15.50;99.90;;;;;;4248297;27;20035;-81
2023/10/09 05:12:59;;;;;;;26.83;9.77;;;15.50;99.90;;;;;;4248478;28;20403;-81
2023/10/09 05:15:08;;;;;;;25.98;9.40;;;15.50;99.90;;;;;;4248289;28;20049;-81
2023/10/09 05:17:15;;;;;;;25.95;10.18;;;15.50;99.90;;;;;;4241939;28;20031;-81
2023/10/09 05:21:36;;;;;;;;;;;15.50;99.90;;;;;;4230871;28;20044;-80
2023/10/09 05:23:48;;;;;;;20.83;8.30;;;15.60;99.90;;;;;;4231242;28;19920;-80
2023/10/09 05:25:58;;;;;;;23.75;9.25;;;15.60;99.90;;;;;;4213828;28;20033;-80
2023/10/09 05:28:24;;;;;;;28.08;9.35;;;15.60;99.90;;;;;;4231856;28;20044;-80
2023/10/09 05:30:25;;;;;;;26.70;9.57;;;15.60;99.90;;;;;;4232186;28;20043;-80
2023/10/09 05:32:35;;;;;;;22.65;9.82;;;15.60;99.90;;;;;;4231082;28;20116;-81
2023/10/09 05:37:10;;;;;;;26.10;9.25;;;15.60;99.90;;;;;;4247672;27;20043;-80
2023/10/09 05:41:31;;;;;;;23.38;8.57;;;15.60;99.90;;;;;;4232228;28;20055;-81
2023/10/09 05:46:07;;;;;;;;;;;15.60;99.90;;;;;;4235664;27;20566;-81
2023/10/09 05:52:32;;;;;;;19.92;7.80;;;15.60;99.90;;;;;;4226676;28;20051;-81
2023/10/09 06:03:53;;;;;;;15.82;7.18;;;15.70;99.90;;;;;;4224024;28;20539;-80
2023/10/09 06:08:06;;;;;;;20.38;6.82;;;15.70;99.90;;;;;;4249008;27;20054;-80
2023/10/09 06:10:17;;;;;;;20.20;6.40;;;15.70;99.90;;;;;;4234103;27;20047;-82
2023/10/09 06:12:49;;;;;;;21.45;7.28;;;15.70;99.90;;;;;;4234882;27;20046;-82
2023/10/09 06:14:50;;;;;;;22.48;7.00;;;15.70;99.90;;;;;;4251117;27;20376;-82
2023/10/09 06:19:11;;;;;;;16.67;6.25;;;15.70;99.90;;;;;;4240801;27;20047;-82
2023/10/09 06:26:23;;;;;;;24.98;6.55;;;15.70;99.90;;;;;;4201484;27;20036;-81
2023/10/09 06:28:32;;;;;;;18.15;6.15;;;15.70;99.90;;;;;;4233207;28;20552;-81
2023/10/09 06:30:35;;;;;;;;;;;15.70;99.90;;;;;;4233524;28;20514;-81
2023/10/09 06:32:37;;;;;;;22.10;6.28;;;15.80;99.90;;;;;;4231619;28;19923;-81
2023/10/09 06:34:44;;;;;;;17.35;6.30;;;15.80;99.90;;;;;;4212181;28;20639;-81
2023/10/09 06:36:52;;;;;;;15.43;6.20;;;15.80;99.90;;;;;;4212888;28;20055;-81
2023/10/09 06:39:50;;;;;;;18.73;5.63;;;15.80;99.90;;;;;;4211799;28;20512;-81
2023/10/09 06:43:36;;;;;;;20.13;5.93;;;15.80;99.90;;;;;;4231408;28;20515;-82
2023/10/09 06:45:46;;;;;;;17.55;5.72;;;15.80;99.90;;;;;;4230909;28;20081;-81
2023/10/09 06:48:09;;;;;;;16.02;6.13;;;15.80;99.90;;;;;;4232788;28;20047;-81
2023/10/09 06:52:56;;;;;;;15.15;6.07;;;15.80;99.90;;;;;;4231869;28;20044;-82
2023/10/09 06:54:49;;;;;;;18.52;5.65;;;15.80;99.90;;;;;;4232934;28;20108;-81
2023/10/09 06:59:05;;;;;;;16.02;5.15;;;15.80;99.90;;;;;;4233091;28;20055;-81
2023/10/09 07:03:32;;;;;;;26.05;6.65;;;15.80;99.90;;;;;;4233045;28;20491;-81
2023/10/09 07:05:48;;;;;;;13.85;5.25;;;15.80;99.90;;;;;;4215292;28;20583;-81
2023/10/09 07:07:54;;;;;;;20.67;6.75;;;15.80;99.90;;;;;;4237650;28;20407;-81
2023/10/09 07:12:25;;;;;;;19.77;6.68;;;15.80;99.90;;;;;;4232875;28;20401;-81
2023/10/09 07:16:38;;;;;;;18.58;6.07;;;15.80;99.90;;;;;;4232808;28;20052;-81
2023/10/09 07:18:49;;;;;;;23.52;5.55;;;15.80;99.90;;;;;;4232679;28;20079;-82
2023/10/09 07:20:59;;;;;;;18.70;5.78;;;15.90;99.90;;;;;;4232750;28;20043;-81
2023/10/09 07:23:13;;;;;;;15.65;5.25;;;15.90;99.90;;;;;;4215879;28;20115;-81
2023/10/09 07:25:27;;;;;;;18.65;5.78;;;15.80;99.90;;;;;;4232647;28;20044;-81
2023/10/09 07:27:48;;;;;;;22.98;5.68;;;15.90;99.90;;;;;;4213988;28;20575;-81
2023/10/09 07:29:49;;;;;;;17.95;6.10;;;15.90;99.90;;;;;;4232585;28;20047;-81
2023/10/09 07:31:57;;;;;;;18.73;5.35;;;15.90;99.90;;;;;;4232316;28;20050;-81
2023/10/09 07:33:57;;;;;;;21.23;5.68;;;15.90;99.90;;;;;;4231299;28;20418;-81
2023/10/09 07:36:08;;;;;;;18.48;5.97;;;15.90;99.90;;;;;;4232349;28;20118;-81
2023/10/09 07:38:35;;;;;;;16.55;5.82;;;15.90;99.90;;;;;;4231883;28;20097;-81
2023/10/09 07:43:05;;;;;;;17.10;6.32;;;15.90;99.90;;;;;;4232064;28;20048;-81
2023/10/09 07:46:08;;;;;;;25.67;6.85;;;16.00;99.90;;;;;;4232336;28;20043;-81
2023/10/09 07:48:02;;;;;;;19.60;5.68;;;16.00;99.90;;;;;;4231972;28;20047;-81
2023/10/09 07:50:03;;;;;;;13.88;4.43;;;16.00;99.90;;;;;;4232966;28;20040;-81
2023/10/09 07:52:05;;;;;;;18.67;5.40;;;16.00;99.90;;;;;;4232994;28;20044;-81
2023/10/09 07:54:08;;;;;;;22.38;5.75;;;16.00;99.90;;;;;;4232472;28;20476;-81
2023/10/09 07:56:13;;;;;;;21.85;5.47;;;16.00;99.90;;;;;;4231778;28;20040;-82
2023/10/09 07:58:14;;;;;;;17.33;4.90;;;16.00;99.90;;;;;;4232156;28;20096;-81
2023/10/09 08:02:34;;;;;;;18.73;5.65;;;16.30;99.90;;;;;;4233335;28;20047;-81
2023/10/09 08:04:37;;;;;;;19.85;5.25;;;16.00;99.90;;;;;;4233421;28;20047;-82
2023/10/09 08:06:38;;;;;;;15.75;5.25;;;16.00;99.90;;;;;;4232164;28;20483;-80
2023/10/09 08:08:39;;;;;;;16.38;5.57;;;16.00;99.90;;;;;;4231994;28;20088;-81
2023/10/09 08:12:59;;;;;;;;;;;16.00;99.90;;;;;;4233244;28;20044;-81
2023/10/09 08:15:20;;;;;;;22.08;5.45;;;16.00;99.90;;;;;;4213881;28;19919;-82
2023/10/09 08:17:27;;;;;;;14.68;5.32;;;16.00;99.90;;;;;;4231683;28;20082;-81
2023/10/09 08:19:34;;;;;;;17.92;5.00;;;16.00;99.90;;;;;;4235820;28;20044;-81
2023/10/09 08:22:07;;;;;;;19.63;4.68;;;16.00;99.90;;;;;;4248621;28;20024;-82
2023/10/09 08:24:04;;;;;;;28.27;5.97;;;16.00;99.90;;;;;;4248058;28;20065;-81
2023/10/09 08:26:14;;;;;;;15.55;5.30;;;16.00;99.90;;;;;;4231978;28;20476;-81
2023/10/09 08:33:03;;;;;;;;;;;16.10;99.90;;;;;;4231913;28;20130;-81
2023/10/09 08:35:06;;;;;;;16.63;5.57;;;16.10;99.90;;;;;;4231539;28;20379;-81
2023/10/09 08:37:11;;;;;;;14.82;5.30;;;16.10;99.90;;;;;;4231246;28;20039;-81
2023/10/09 08:39:23;;;;;;;24.52;5.18;;;16.10;99.90;;;;;;4231609;28;20043;-81
2023/10/09 08:41:29;;;;;;;26.23;6.85;;;16.10;99.90;;;;;;4231019;28;20563;-81
2023/10/09 08:43:36;;;;;;;18.48;6.22;;;16.10;99.90;;;;;;4231444;28;20423;-82
2023/10/09 08:45:41;;;;;;;16.13;5.03;;;16.10;99.90;;;;;;4231443;28;20042;-81
2023/10/09 08:47:42;;;;;;;17.95;5.25;;;16.20;99.90;;;;;;4231398;28;20043;-81
2023/10/09 08:49:43;;;;;;;22.35;5.35;;;16.10;99.90;;;;;;4231388;28;20044;-82
2023/10/09 08:51:47;;;;;;;22.10;5.70;;;16.20;99.90;;;;;;4230811;28;20051;-81
2023/10/09 08:53:47;;;;;;;13.75;5.68;;;16.20;99.90;;;;;;4231426;28;20071;-81
2023/10/09 08:55:48;;;;;;;19.98;5.88;;;16.20;99.90;;;;;;4230775;28;20036;-81
2023/10/09 08:57:49;;;;;;;18.90;5.38;;;16.20;99.90;;;;;;4231250;28;20112;-81
2023/10/09 08:59:50;;;;;;;19.77;5.07;;;16.20;99.90;;;;;;4231218;28;20063;-81
2023/10/09 09:01:53;;;;;;;20.55;5.13;;;16.30;99.90;;;;;;4230913;28;20103;-81
2023/10/09 09:03:57;;;;;;;18.92;5.03;;;16.30;99.90;;;;;;4213165;28;20051;-81
2023/10/09 09:06:02;;;;;;;15.52;4.75;;;16.40;99.90;;;;;;4230891;28;20091;-82
2023/10/09 09:08:04;;;;;;;22.42;6.05;;;16.40;99.90;;;;;;4231151;28;20052;-81
2023/10/09 09:10:17;;;;;;;18.05;5.22;;;16.40;99.90;;;;;;4212421;28;20120;-81
2023/10/09 09:12:17;;;;;;;19.10;5.55;;;16.40;99.90;;;;;;4231067;28;20047;-81
2023/10/09 09:14:22;;;;;;;23.25;5.63;;;16.50;99.90;;;;;;4230979;28;20089;-81
2023/10/09 09:16:30;;;;;;;22.00;6.05;;;16.50;99.90;;;;;;4230298;28;20123;-81
2023/10/09 09:18:37;;;;;;;14.65;4.13;;;16.50;99.90;;;;;;4231102;28;20075;-81
2023/10/09 09:20:40;;;;;;;21.63;5.38;;;16.50;99.90;;;;;;4213891;28;20040;-81
2023/10/09 09:22:56;;;;;;;14.88;5.43;;;16.50;99.90;;;;;;4212586;28;20115;-82
2023/10/09 09:25:03;;;;;;;18.02;4.05;;;16.50;99.90;;;;;;4231052;28;20426;-81
2023/10/09 09:27:18;;;;;;;14.30;4.75;;;16.50;99.90;;;;;;4230941;28;20097;-81
2023/10/09 09:29:19;;;;;;;14.73;4.43;;;16.50;99.90;;;;;;4231030;28;20044;-81
2023/10/09 09:31:22;;;;;;;8.98;4.50;;;16.50;99.90;;;;;;4230723;28;20047;-81
2023/10/09 09:33:43;;;;;;;13.70;4.82;;;16.50;99.90;;;;;;4230771;28;20054;-82
2023/10/09 09:36:00;;;;;;;15.93;4.97;;;16.60;99.90;;;;;;4230818;28;20062;-81
2023/10/09 09:38:06;;;;;;;;;;;16.60;99.90;;;;;;4212772;28;20476;-82
2023/10/09 09:40:27;;;;;;;13.52;3.97;;;16.60;99.90;;;;;;4212852;28;19927;-82
2023/10/09 09:42:31;;;;;;;15.32;4.28;;;16.60;99.90;;;;;;4212768;28;20447;-82
2023/10/09 09:44:34;;;;;;;15.45;4.15;;;16.60;99.90;;;;;;4230662;28;20540;-81
2023/10/09 09:46:36;;;;;;;16.83;5.00;;;16.70;99.90;;;;;;4230942;28;20100;-81
2023/10/09 09:48:39;;;;;;;13.85;4.50;;;16.70;99.90;;;;;;4230877;28;20059;-81
2023/10/09 09:50:46;;;;;;;18.95;6.53;;;16.70;99.90;;;;;;4230501;28;20058;-81
2023/10/09 09:52:49;;;;;;;20.77;4.47;;;16.70;99.90;;;;;;4230553;28;20522;-81
2023/10/09 09:54:51;;;;;;;13.38;4.63;;;16.80;99.90;;;;;;4212464;28;20076;-82
2023/10/09 09:56:54;;;;;;;18.30;4.60;;;16.80;99.90;;;;;;4230752;28;20098;-82
2023/10/09 09:59:01;;;;;;;15.75;4.53;;;16.80;99.90;;;;;;4196095;28;20060;-82
2023/10/09 10:01:15;;;;;;;15.02;4.68;;;16.80;99.90;;;;;;4230764;28;20044;-81
2023/10/09 10:03:22;;;;;;;19.23;4.82;;;16.80;99.90;;;;;;4230755;28;20043;-81
2023/10/09 10:05:23;;;;;;;15.93;3.80;;;16.70;99.90;;;;;;4230699;28;20040;-81
2023/10/09 10:07:28;;;;;;;15.77;4.35;;;16.80;99.90;;;;;;4230715;28;20052;-81
2023/10/09 10:09:45;;;;;;;16.50;4.53;;;16.80;99.90;;;;;;4230597;28;20039;-82
2023/10/09 10:11:51;;;;;;;15.98;4.40;;;16.80;99.90;;;;;;4230826;28;20066;-82
2023/10/09 10:13:55;;;;;;;12.38;3.55;;;16.80;99.90;;;;;;4230340;28;20047;-81
2023/10/09 10:16:08;;;;;;;12.25;3.38;;;16.80;99.90;;;;;;4230646;28;20039;-81
2023/10/09 10:18:10;;;;;;;16.02;4.30;;;16.80;99.90;;;;;;4212128;28;20048;-81
2023/10/09 10:22:27;;;;;;;11.15;3.15;;;16.80;99.90;;;;;;4230267;28;20100;-81
2023/10/09 10:24:28;;;;;;;6.97;3.42;;;16.80;99.90;;;;;;4230462;28;20096;-81
2023/10/09 10:26:33;;;;;;;13.93;3.85;;;16.80;99.90;;;;;;4212369;28;20043;-81
2023/10/09 10:28:44;;;;;;;21.08;4.93;;;16.80;99.90;;;;;;4232479;28;20491;-81
2023/10/09 10:30:50;;;;;;;10.75;3.10;;;16.80;99.90;;;;;;4242965;27;20058;-81
2023/10/09 10:32:57;;;;;;;16.25;4.30;;;16.80;99.90;;;;;;4250434;27;20080;-81
2023/10/09 10:34:59;;;;;;;14.35;3.95;;;16.90;99.90;;;;;;4250329;27;20072;-81
2023/10/09 10:36:59;;;;;;;15.45;3.63;;;16.90;99.90;;;;;;4249984;27;20043;-81
2023/10/09 10:39:05;;;;;;;13.73;3.30;;;16.90;99.90;;;;;;4250120;27;20047;-81
2023/10/09 10:41:19;;;;;;;17.38;3.58;;;16.90;99.90;;;;;;4250348;27;20043;-81
2023/10/09 10:43:32;;;;;;;13.88;3.65;;;17.00;99.90;;;;;;4250132;27;20039;-81
2023/10/09 10:45:43;;;;;;;13.88;3.30;;;16.90;99.90;;;;;;4250387;27;20043;-81
2023/10/09 10:47:47;;;;;;;11.70;3.85;;;16.90;99.90;;;;;;4231834;28;20052;-81
2023/10/09 10:49:50;;;;;;;15.48;3.45;;;16.90;99.90;;;;;;4231450;28;20415;-82
2023/10/09 10:56:38;;;;;;;15.98;3.50;;;16.90;99.90;;;;;;4250273;27;20051;-81
2023/10/09 10:58:53;;;;;;;;;;;16.90;99.90;;;;;;4250621;27;20035;-81
2023/10/09 11:03:13;;;;;;;12.23;3.33;;;16.90;99.90;;;;;;4250122;27;20491;-81
2023/10/09 11:05:14;;;;;;;16.00;3.13;;;16.90;99.90;;;;;;4230033;28;20503;-82
2023/10/09 11:07:26;;;;;;;15.10;3.17;;;16.90;99.90;;;;;;4217942;28;20043;-82
2023/10/09 11:09:36;;;;;;;15.63;4.07;;;16.80;99.90;;;;;;4231631;28;20105;-82
2023/10/09 11:11:46;;;;;;;15.65;4.00;;;16.80;99.90;;;;;;4222064;28;20204;-82
2023/10/09 11:14:02;;;;;;;14.40;3.85;;;16.80;99.90;;;;;;4229605;28;20039;-82
2023/10/09 11:16:28;;;;;;;15.18;3.17;;;16.80;99.90;;;;;;4214944;28;20134;-82
2023/10/09 11:18:29;;;;;;;9.82;2.40;;;16.80;99.90;;;;;;4244831;27;20044;-82
2023/10/09 11:20:34;;;;;;;13.95;3.30;;;16.80;99.90;;;;;;4237209;27;20046;-82
2023/10/09 11:22:50;;;;;;;8.23;2.97;;;16.80;99.90;;;;;;4243545;27;20044;-82
2023/10/09 11:25:11;;;;;;;9.32;2.40;;;16.90;99.90;;;;;;4239919;27;20107;-82
2023/10/09 11:27:18;;;;;;;10.90;2.45;;;16.90;99.90;;;;;;4220851;28;20123;-80
2023/10/09 11:31:45;;;;;;;6.18;2.65;;;16.90;99.90;;;;;;4217330;28;20115;-82
2023/10/09 11:33:54;;;;;;;8.57;2.33;;;16.90;99.90;;;;;;4247697;27;20035;-81
2023/10/09 11:35:57;;;;;;;11.35;2.25;;;16.90;99.90;;;;;;4233027;27;20180;-83
2023/10/09 11:38:20;;;;;;;13.70;2.75;;;17.00;99.90;;;;;;4213695;28;20043;-82
2023/10/09 11:40:49;;;;;;;10.90;2.55;;;17.00;99.90;;;;;;4245719;27;20108;-81
2023/10/09 11:42:57;;;;;;;;;;;17.10;99.90;;;;;;4243494;27;20035;-81
2023/10/09 11:45:04;;;;;;;11.27;2.35;;;17.20;99.90;;;;;;4242614;27;19945;-81
2023/10/09 11:51:22;;;;;;;10.50;2.88;;;17.30;99.90;;;;;;4244508;27;20433;-83
2023/10/09 11:55:25;;;;;;;8.25;2.47;;;17.30;99.90;;;;;;4226071;28;20051;-82
2023/10/09 11:57:33;;;;;;;9.80;2.53;;;17.30;99.90;;;;;;4236851;27;20100;-83
2023/10/09 11:59:37;;;;;;;12.57;3.05;;;17.30;99.90;;;;;;4245583;27;20407;-82
2023/10/09 12:01:42;;;;;;;10.85;3.05;;;17.30;99.90;;;;;;4248363;27;20045;-82
2023/10/09 12:03:44;;;;;;;8.13;2.30;;;17.30;99.90;;;;;;4234042;27;20122;-82
2023/10/09 12:05:44;;;;;;;9.82;2.65;;;17.40;99.90;;;;;;4246871;27;20176;-82
2023/10/09 12:07:46;;;;;;;9.60;3.22;;;17.40;99.90;;;;;;4215292;28;20060;-83
2023/10/09 12:09:48;;;;;;;7.07;2.70;;;17.40;99.90;;;;;;4237710;27;20058;-83
2023/10/09 12:11:52;;;;;;;7.50;2.55;;;17.40;99.90;;;;;;4238228;27;20046;-83
2023/10/09 12:13:57;;;;;;;8.18;2.20;;;17.50;99.90;;;;;;4221510;28;20035;-83
2023/10/09 12:15:58;;;;;;;12.13;2.30;;;17.40;99.90;;;;;;4235872;27;20093;-83
2023/10/09 12:17:59;;;;;;;8.93;2.53;;;17.40;99.90;;;;;;4248023;27;20051;-83
2023/10/09 12:20:00;;;;;;;15.60;2.92;;;17.40;99.90;;;;;;4246000;27;20039;-83
2023/10/09 12:22:03;;;;;;;12.85;2.90;;;17.40;99.90;;;;;;4229678;28;20039;-83
2023/10/09 12:24:11;;;;;;;7.35;2.38;;;17.40;99.90;;;;;;4226765;28;20047;-82
2023/10/09 12:26:14;;;;;;;16.80;3.08;;;17.40;99.90;;;;;;4234050;27;20106;-83
2023/10/09 12:28:15;;;;;;;7.53;3.75;;;17.30;99.90;;;;;;4245887;27;20088;-84
2023/10/09 12:30:16;;;;;;;12.20;3.20;;;17.40;99.90;;;;;;4236053;27;20470;-83
2023/10/09 12:32:20;;;;;;;11.35;2.47;;;17.40;99.90;;;;;;4205356;28;20047;-83